createdAt,value
2023-09-06T00:02:19.743Z,6.13
2023-09-06T00:05:22.790Z,9.63
2023-09-06T00:08:27.606Z,4.35
2023-09-06T00:11:30.959Z,4.38
2023-09-06T00:14:34.009Z,4.88
2023-09-06T00:17:38.926Z,5.80
2023-09-06T00:20:42.060Z,11.35
2023-09-06T00:23:46.476Z,11.18
2023-09-06T00:26:50.827Z,8.68
2023-09-06T00:29:54.013Z,7.53
2023-09-06T00:32:57.173Z,5.55
2023-09-06T00:36:00.289Z,6.88
2023-09-06T00:39:06.925Z,6.45
2023-09-06T00:42:11.089Z,6.07
2023-09-06T00:45:14.297Z,7.07
2023-09-06T00:48:20.674Z,7.88
2023-09-06T00:51:23.898Z,7.22
2023-09-06T00:54:28.489Z,8.73
2023-09-06T00:57:33.279Z,6.65
2023-09-06T01:00:36.735Z,6.25
2023-09-06T01:03:41.921Z,7.90
2023-09-06T01:06:45.588Z,12.00
2023-09-06T01:09:50.197Z,16.80
2023-09-06T01:12:56.131Z,11.60
2023-09-06T01:15:59.734Z,14.52
2023-09-06T01:19:03.227Z,16.48
2023-09-06T01:22:10.831Z,17.53
2023-09-06T01:25:15.797Z,13.60
2023-09-06T01:28:19.474Z,18.38
2023-09-06T01:31:22.546Z,17.88
2023-09-06T01:34:25.600Z,10.73
2023-09-06T01:37:28.670Z,11.05
2023-09-06T01:40:33.062Z,11.05
2023-09-06T01:43:36.152Z,11.30
2023-09-06T01:46:39.784Z,11.07
2023-09-06T01:49:46.150Z,10.18
2023-09-06T01:52:49.727Z,11.65
2023-09-06T01:55:54.359Z,11.20
2023-09-06T01:58:57.467Z,12.20
2023-09-06T02:02:00.604Z,10.88
2023-09-06T02:05:03.749Z,7.90
2023-09-06T02:08:07.397Z,10.15
2023-09-06T02:11:11.837Z,8.60
2023-09-06T02:14:14.830Z,9.57
2023-09-06T02:17:18.176Z,8.35
2023-09-06T02:20:22.137Z,8.70
2023-09-06T02:23:25.338Z,7.25
2023-09-06T02:26:30.735Z,7.85
2023-09-06T02:29:33.888Z,11.00
2023-09-06T02:32:37.362Z,16.15
2023-09-06T02:35:41.891Z,7.33
2023-09-06T02:38:47.947Z,6.00
2023-09-06T02:41:52.816Z,5.82
2023-09-06T02:44:56.074Z,7.90
2023-09-06T02:48:35.332Z,6.30
2023-09-06T02:51:38.435Z,9.45
2023-09-06T02:54:43.475Z,6.05
2023-09-06T02:57:51.123Z,5.85
2023-09-06T03:00:58.956Z,6.32
2023-09-06T03:04:07.836Z,5.72
2023-09-06T03:07:11.774Z,9.45
2023-09-06T03:10:16.818Z,7.35
2023-09-06T03:13:21.679Z,6.75
2023-09-06T03:16:25.264Z,5.93
2023-09-06T03:19:54.629Z,5.55
2023-09-06T03:23:00.070Z,7.25
2023-09-06T03:26:03.590Z,6.95
2023-09-06T03:29:11.412Z,6.10
2023-09-06T03:32:14.799Z,7.40
2023-09-06T03:35:23.602Z,9.73
2023-09-06T03:38:28.687Z,9.10
2023-09-06T03:41:33.484Z,7.47
2023-09-06T03:47:40.787Z,11.82
2023-09-06T03:50:47.213Z,6.35
2023-09-06T03:53:50.578Z,7.10
2023-09-06T03:56:54.835Z,5.78
2023-09-06T04:03:05.243Z,6.70
2023-09-06T04:06:12.006Z,8.25
2023-09-06T04:09:15.656Z,7.00
2023-09-06T04:12:18.904Z,7.25
2023-09-06T04:15:23.563Z,8.03
2023-09-06T04:18:28.654Z,10.80
2023-09-06T04:21:33.497Z,7.20
2023-09-06T04:24:37.315Z,8.55
2023-09-06T04:27:40.598Z,9.02
2023-09-06T04:30:44.874Z,8.45
2023-09-06T04:33:48.319Z,10.40
2023-09-06T04:36:53.174Z,9.20
2023-09-06T04:39:56.415Z,9.50
2023-09-06T04:42:59.467Z,8.30
2023-09-06T04:46:02.635Z,11.52
2023-09-06T04:49:06.006Z,9.55
2023-09-06T04:52:10.549Z,15.07
2023-09-06T04:55:15.105Z,7.80
2023-09-06T04:58:19.192Z,7.93
2023-09-06T05:01:22.705Z,7.82
2023-09-06T05:04:26.198Z,10.32
2023-09-06T05:07:31.362Z,11.27
2023-09-06T05:10:37.775Z,11.00
2023-09-06T05:13:40.822Z,11.48
2023-09-06T05:16:44.103Z,8.10
2023-09-06T05:19:52.824Z,13.03
2023-09-06T05:22:58.445Z,7.43
2023-09-06T05:26:01.585Z,8.63
2023-09-06T05:29:05.831Z,9.70
2023-09-06T05:32:09.853Z,9.32
2023-09-06T05:35:13.318Z,7.72
2023-09-06T05:38:17.813Z,7.70
2023-09-06T05:41:21.096Z,8.68
2023-09-06T05:44:25.375Z,9.70
2023-09-06T05:47:52.147Z,10.98
2023-09-06T05:50:55.712Z,9.48
2023-09-06T05:54:00.163Z,7.30
2023-09-06T05:57:05.605Z,9.95
2023-09-06T06:00:13.986Z,10.75
2023-09-06T06:03:20.174Z,9.48
2023-09-06T06:06:23.850Z,10.05
2023-09-06T06:09:29.114Z,8.25
2023-09-06T06:12:34.021Z,8.25
2023-09-06T06:15:37.165Z,7.68
2023-09-06T06:18:41.562Z,8.97
2023-09-06T06:21:44.894Z,8.20
2023-09-06T06:24:48.333Z,10.43
2023-09-06T06:27:53.273Z,8.00
2023-09-06T06:30:56.796Z,7.90
2023-09-06T06:34:01.329Z,12.67
2023-09-06T06:37:04.390Z,7.22
2023-09-06T06:40:08.784Z,6.70
2023-09-06T06:43:12.834Z,8.52
2023-09-06T06:46:25.904Z,7.28
2023-09-06T06:49:30.683Z,8.10
2023-09-06T06:52:34.827Z,5.88
2023-09-06T06:55:38.403Z,8.93
2023-09-06T06:58:41.522Z,6.60
2023-09-06T07:01:44.710Z,6.17
2023-09-06T07:04:49.355Z,5.18
2023-09-06T07:07:52.439Z,5.82
2023-09-06T07:10:55.550Z,9.97
2023-09-06T07:13:58.893Z,6.57
2023-09-06T07:17:02.571Z,6.15
2023-09-06T07:20:08.741Z,6.03
2023-09-06T07:23:11.839Z,7.75
2023-09-06T07:26:14.979Z,8.27
2023-09-06T07:29:19.873Z,5.90
2023-09-06T07:32:23.007Z,6.28
2023-09-06T07:35:28.498Z,5.70
2023-09-06T07:38:55.861Z,5.75
2023-09-06T07:41:59.797Z,5.22
2023-09-06T07:48:06.309Z,5.78
2023-09-06T07:51:10.423Z,7.03
2023-09-06T07:54:15.302Z,8.30
2023-09-06T07:57:18.427Z,6.47
2023-09-06T08:00:22.357Z,6.93
2023-09-06T08:06:29.890Z,5.68
2023-09-06T08:09:34.559Z,7.03
2023-09-06T08:12:37.913Z,5.00
2023-09-06T08:15:40.989Z,5.72
2023-09-06T08:18:45.978Z,4.77
2023-09-06T08:21:49.346Z,6.13
2023-09-06T08:24:54.317Z,10.00
2023-09-06T08:27:57.365Z,5.25
2023-09-06T08:31:02.798Z,6.43
2023-09-06T08:34:06.665Z,4.95
2023-09-06T08:37:09.954Z,4.65
2023-09-06T08:40:16.863Z,4.97
2023-09-06T08:43:23.640Z,6.57
2023-09-06T08:46:31.887Z,6.72
2023-09-06T08:49:37.101Z,6.10
2023-09-06T08:52:42.839Z,4.43
2023-09-06T08:55:47.709Z,6.75
2023-09-06T08:58:50.816Z,3.50
2023-09-06T09:01:53.913Z,6.10
2023-09-06T09:05:09.617Z,4.15
2023-09-06T09:08:20.139Z,5.70
2023-09-06T09:11:25.706Z,5.27
2023-09-06T09:14:28.976Z,3.55
2023-09-06T09:17:37.954Z,4.30
2023-09-06T09:20:48.890Z,6.78
2023-09-06T09:23:56.598Z,6.10
2023-09-06T09:27:01.112Z,6.75
2023-09-06T09:30:08.086Z,4.63
2023-09-06T09:33:11.711Z,4.38
2023-09-06T09:36:16.031Z,5.20
2023-09-06T09:39:20.377Z,3.72
2023-09-06T09:42:25.197Z,3.58
2023-09-06T09:45:30.420Z,5.40
2023-09-06T09:48:34.065Z,5.45
2023-09-06T09:51:38.452Z,3.30
2023-09-06T09:54:44.396Z,3.67
2023-09-06T09:57:51.729Z,3.72
2023-09-06T10:01:12.232Z,2.72
2023-09-06T10:04:17.123Z,3.88
2023-09-06T10:07:25.561Z,4.85
2023-09-06T10:10:37.472Z,2.60
2023-09-06T10:13:41.378Z,2.40
2023-09-06T10:19:54.636Z,3.50
2023-09-06T10:22:59.098Z,5.18
2023-09-06T10:26:02.573Z,2.72
2023-09-06T10:29:10.304Z,4.28
2023-09-06T10:32:14.639Z,5.18
2023-09-06T10:35:22.899Z,6.53
2023-09-06T10:38:28.395Z,5.38
2023-09-06T10:41:31.741Z,5.22
2023-09-06T10:45:08.658Z,3.40
2023-09-06T10:48:13.515Z,3.78
2023-09-06T10:51:18.087Z,3.85
2023-09-06T10:54:21.755Z,3.83
2023-09-06T10:57:26.477Z,4.30
2023-09-06T11:00:32.074Z,4.15
2023-09-06T11:03:36.634Z,4.68
2023-09-06T11:06:52.824Z,5.38
2023-09-06T11:09:56.317Z,6.13
2023-09-06T11:13:00.511Z,3.70
2023-09-06T11:16:04.443Z,5.32
2023-09-06T11:19:09.850Z,3.85
2023-09-06T11:22:13.066Z,7.05
2023-09-06T11:25:19.852Z,6.57
2023-09-06T11:28:22.989Z,6.30
2023-09-06T11:31:32.070Z,4.37
2023-09-06T11:34:44.897Z,4.43
2023-09-06T11:37:51.868Z,4.05
2023-09-06T11:40:56.847Z,3.90
2023-09-06T11:44:07.479Z,4.70
2023-09-06T11:47:11.140Z,5.00
2023-09-06T11:50:20.246Z,4.18
2023-09-06T11:53:23.404Z,4.10
2023-09-06T11:56:28.447Z,10.03
2023-09-06T11:59:33.829Z,5.10
2023-09-06T12:02:37.017Z,5.28
2023-09-06T12:05:49.831Z,4.73
2023-09-06T12:08:53.674Z,5.20
2023-09-06T12:11:56.871Z,5.40
2023-09-06T12:15:26.805Z,4.78
2023-09-06T12:18:31.788Z,3.72
2023-09-06T12:21:35.401Z,4.97
2023-09-06T12:24:39.995Z,5.50
2023-09-06T12:27:44.651Z,4.13
2023-09-06T12:30:53.290Z,4.25
2023-09-06T12:33:56.243Z,3.83
2023-09-06T12:36:59.297Z,4.10
2023-09-06T12:40:02.447Z,4.00
2023-09-06T12:43:06.524Z,3.17
2023-09-06T12:46:13.526Z,3.60
2023-09-06T12:49:16.999Z,6.40
2023-09-06T12:52:23.069Z,4.60
2023-09-06T12:55:27.350Z,4.47
2023-09-06T12:58:30.772Z,4.07
2023-09-06T13:01:35.660Z,5.05
2023-09-06T13:04:39.476Z,4.78
2023-09-06T13:07:42.617Z,7.38
2023-09-06T13:13:25.755Z,4.40
2023-09-06T13:16:29.520Z,4.90
2023-09-06T13:19:33.795Z,5.88
2023-09-06T13:22:38.227Z,4.85
2023-09-06T13:25:41.617Z,11.30
2023-09-06T13:28:46.081Z,6.10
2023-09-06T13:31:49.489Z,7.68
2023-09-06T13:34:53.839Z,3.88
2023-09-06T13:37:58.420Z,5.80
2023-09-06T13:41:01.618Z,6.03
2023-09-06T13:44:06.799Z,4.37
2023-09-06T13:47:10.930Z,5.10
2023-09-06T13:50:14.042Z,5.35
2023-09-06T13:53:17.072Z,4.63
2023-09-06T13:56:20.217Z,4.63
2023-09-06T13:59:24.673Z,5.73
2023-09-06T14:02:29.951Z,8.07
2023-09-06T14:05:34.249Z,5.57
2023-09-06T14:08:37.577Z,4.55
2023-09-06T14:11:41.884Z,5.63
2023-09-06T14:14:46.334Z,5.72
2023-09-06T14:17:52.101Z,6.18
2023-09-06T14:20:56.242Z,4.22
2023-09-06T14:27:04.855Z,5.60
2023-09-06T14:30:10.566Z,7.95
2023-09-06T14:33:14.539Z,5.43
2023-09-06T14:39:20.585Z,5.68
2023-09-06T14:42:23.972Z,6.00
2023-09-06T14:45:28.779Z,6.13
2023-09-06T14:48:33.186Z,5.50
2023-09-06T14:51:36.548Z,5.82
2023-09-06T14:54:39.797Z,6.03
2023-09-06T14:57:43.107Z,6.55
2023-09-06T15:00:47.571Z,6.93
2023-09-06T15:03:50.976Z,12.45
2023-09-06T15:06:59.832Z,9.10
2023-09-06T15:10:04.611Z,14.57
2023-09-06T15:13:12.875Z,7.25
2023-09-06T15:16:17.432Z,8.27
2023-09-06T15:19:20.851Z,6.88
2023-09-06T15:22:38.038Z,10.37
2023-09-06T15:25:42.380Z,6.78
2023-09-06T15:28:45.577Z,10.67
2023-09-06T15:31:50.618Z,7.43
2023-09-06T15:34:54.244Z,6.82
2023-09-06T15:38:01.878Z,6.55
2023-09-06T15:41:07.298Z,7.25
2023-09-06T15:44:10.607Z,9.27
2023-09-06T15:47:15.982Z,6.67
2023-09-06T15:50:21.139Z,7.40
2023-09-06T15:53:24.624Z,6.35
2023-09-06T15:56:27.790Z,9.25
2023-09-06T15:59:31.184Z,7.03
2023-09-06T16:02:35.906Z,6.20
2023-09-06T16:05:40.269Z,9.07
2023-09-06T16:08:43.466Z,9.85
2023-09-06T16:11:46.587Z,7.60
2023-09-06T16:14:53.616Z,7.95
2023-09-06T16:17:58.178Z,6.90
2023-09-06T16:21:01.360Z,6.07
2023-09-06T16:24:05.743Z,5.95
2023-09-06T16:27:09.096Z,5.63
2023-09-06T16:30:14.330Z,5.40
2023-09-06T16:33:19.628Z,4.95
2023-09-06T16:36:23.671Z,5.72
2023-09-06T16:42:30.272Z,6.25
2023-09-06T16:45:33.254Z,6.35
2023-09-06T16:48:37.660Z,6.00
2023-09-06T16:51:40.779Z,5.75
2023-09-06T16:54:43.843Z,5.40
2023-09-06T16:57:51.591Z,5.18
2023-09-06T17:00:54.659Z,5.65
2023-09-06T17:03:59.076Z,7.00
2023-09-06T17:07:02.122Z,6.22
2023-09-06T17:10:08.724Z,5.85
2023-09-06T17:13:12.474Z,5.18
2023-09-06T17:16:16.192Z,7.30
2023-09-06T17:19:20.661Z,6.30
2023-09-06T17:22:24.148Z,5.45
2023-09-06T17:25:27.640Z,4.30
2023-09-06T17:28:30.964Z,5.00
2023-09-06T17:31:35.435Z,4.88
2023-09-06T17:36:36.316Z,6.63
2023-09-06T17:39:41.871Z,7.72
2023-09-06T17:42:51.532Z,8.35
2023-09-06T17:45:57.068Z,8.30
2023-09-06T17:49:02.527Z,12.68
2023-09-06T17:52:07.880Z,7.38
2023-09-06T17:55:13.792Z,11.25
2023-09-06T17:58:18.174Z,8.27
2023-09-06T18:01:22.805Z,9.25
2023-09-06T18:04:25.964Z,6.70
2023-09-06T18:07:30.408Z,8.67
2023-09-06T18:10:34.600Z,12.40
2023-09-06T18:13:40.346Z,6.88
2023-09-06T18:16:46.065Z,9.43
2023-09-06T18:22:12.620Z,12.10
2023-09-06T18:25:15.643Z,9.07
2023-09-06T18:28:18.593Z,9.35
2023-09-06T18:31:22.509Z,9.63
2023-09-06T18:34:25.645Z,10.45
2023-09-06T18:37:30.138Z,8.95
2023-09-06T18:40:33.604Z,10.48
2023-09-06T18:43:38.735Z,9.73
2023-09-06T18:46:41.946Z,9.98
2023-09-06T18:49:45.180Z,9.83
2023-09-06T18:52:50.144Z,10.80
2023-09-06T18:55:53.503Z,12.57
2023-09-06T18:58:56.639Z,14.90
2023-09-06T19:01:59.564Z,11.73
2023-09-06T19:05:02.795Z,10.63
2023-09-06T19:08:12.610Z,12.70
2023-09-06T19:11:15.662Z,9.52
2023-09-06T19:14:19.941Z,10.90
2023-09-06T19:17:23.169Z,11.02
2023-09-06T19:20:26.488Z,12.57
2023-09-06T19:23:30.805Z,10.77
2023-09-06T19:26:34.744Z,12.55
2023-09-06T19:29:37.718Z,11.45
2023-09-06T19:32:41.230Z,12.32
2023-09-06T19:35:44.548Z,15.77
2023-09-06T19:38:49.069Z,15.90
2023-09-06T19:41:52.348Z,26.73
2023-09-06T19:44:55.349Z,13.03
2023-09-06T19:47:59.113Z,16.13
2023-09-06T19:51:05.100Z,16.45
2023-09-06T19:54:10.027Z,15.60
2023-09-06T19:57:13.614Z,12.32
2023-09-06T20:00:16.999Z,13.35
2023-09-06T20:03:20.395Z,14.10
2023-09-06T20:06:24.009Z,16.77
2023-09-06T20:09:31.584Z,13.73
2023-09-06T20:12:34.920Z,15.02
2023-09-06T20:15:38.773Z,12.60
2023-09-06T20:18:42.047Z,10.20
2023-09-06T20:21:45.824Z,14.80
2023-09-06T20:24:50.462Z,12.82
2023-09-06T20:27:54.526Z,20.48
2023-09-06T20:30:58.244Z,10.90
2023-09-06T20:34:01.917Z,10.75
2023-09-06T20:37:05.993Z,11.35
2023-09-06T20:43:15.521Z,11.75
2023-09-06T20:46:19.043Z,12.57
2023-09-06T20:49:23.253Z,14.95
2023-09-06T20:54:07.669Z,13.13
2023-09-06T20:57:11.167Z,11.00
2023-09-06T21:00:15.383Z,9.88
2023-09-06T21:06:21.248Z,11.80
2023-09-06T21:09:26.167Z,11.43
2023-09-06T21:12:33.116Z,9.75
2023-09-06T21:15:36.525Z,10.75
2023-09-06T21:18:39.833Z,13.27
2023-09-06T21:21:43.471Z,11.33
2023-09-06T21:24:48.072Z,9.77
2023-09-06T21:27:52.121Z,11.13
2023-09-06T21:30:55.700Z,10.00
2023-09-06T21:33:59.608Z,6.63
2023-09-06T21:37:03.057Z,8.52
2023-09-06T21:40:08.952Z,9.30
2023-09-06T21:43:19.129Z,11.93
2023-09-06T21:46:23.191Z,8.07
2023-09-06T21:49:26.288Z,8.77
2023-09-06T21:52:29.296Z,9.55
2023-09-06T21:55:33.934Z,16.95
2023-09-06T21:58:37.084Z,10.50
2023-09-06T22:01:40.061Z,10.23
2023-09-06T22:04:43.447Z,10.88
2023-09-06T22:07:48.026Z,10.15
2023-09-06T22:10:52.411Z,13.02
2023-09-06T22:13:55.379Z,11.55
2023-09-06T22:16:58.521Z,12.13
2023-09-06T22:20:01.787Z,9.95
2023-09-06T22:23:05.395Z,8.57
2023-09-06T22:26:09.827Z,13.50
2023-09-06T22:29:12.818Z,13.20
2023-09-06T22:32:15.934Z,8.85
2023-09-06T22:35:18.908Z,9.05
2023-09-06T22:38:21.921Z,9.73
2023-09-06T22:41:26.816Z,8.57
2023-09-06T22:44:30.097Z,10.05
2023-09-06T22:47:33.191Z,10.33
2023-09-06T22:50:37.306Z,12.88
2023-09-06T22:56:46.138Z,9.52
2023-09-06T22:59:49.347Z,8.52
2023-09-06T23:02:52.465Z,8.63
2023-09-06T23:05:56.097Z,7.88
2023-09-06T23:09:01.718Z,9.07
2023-09-06T23:12:07.102Z,9.43
2023-09-06T23:15:10.710Z,8.32
2023-09-06T23:18:14.218Z,6.72
2023-09-06T23:21:21.101Z,6.28
2023-09-06T23:24:24.435Z,8.85
2023-09-06T23:27:31.008Z,7.00
2023-09-06T23:30:39.091Z,9.48
2023-09-06T23:33:44.918Z,6.63
2023-09-06T23:36:47.940Z,11.38
2023-09-06T23:39:51.619Z,7.50
2023-09-06T23:42:57.749Z,12.15
2023-09-06T23:46:01.042Z,7.15
2023-09-06T23:49:04.102Z,10.70
2023-09-06T23:52:08.592Z,7.82
2023-09-06T23:55:11.695Z,8.27
2023-09-06T23:58:16.133Z,5.80
